Time;durP1;ratioP1;P1;durP2;ratioP2;P2;SDS_P1;SDS_P2;PMS_P1;PMS_P2;Temp;Humidity;BMP_temperature;BMP_pressure;BME280_temperature;BME280_humidity;BME280_pressure;Samples;Min_cycle;Max_cycle;Signal;HPM_P1;HPM_P2
2023/10/05 00:01:53;;;;;;;7.15;2.15;;;;;;;12.43;59.33;100819.13;7683310;32;38003;-78
2023/10/05 00:06:13;;;;;;;4.47;2.12;;;;;;;12.45;59.65;100824.34;7684852;32;37943;-78
2023/10/05 00:10:33;;;;;;;6.43;2.45;;;;;;;12.32;60.48;100820.94;7684660;32;40281;-78
2023/10/05 00:15:36;;;;;;;4.78;2.33;;;;;;;12.36;60.30;100822.06;7667399;32;40040;-77
2023/10/05 00:19:35;;;;;;;4.17;2.20;;;;;;;12.36;61.10;100827.53;7657625;32;38771;-77
2023/10/05 00:23:57;;;;;;;5.15;2.28;;;;;;;12.17;61.68;100818.06;7658199;32;37006;-77
2023/10/05 00:28:15;;;;;;;4.30;2.42;;;;;;;12.27;61.35;100812.69;7658140;32;39875;-77
2023/10/05 00:32:35;;;;;;;5.37;2.42;;;;;;;12.43;60.65;100813.66;7657979;32;40069;-78
2023/10/05 00:36:57;;;;;;;7.07;2.72;;;;;;;12.48;60.09;100808.25;7657442;32;38497;-78
2023/10/05 00:41:13;;;;;;;4.75;2.60;;;;;;;12.61;59.49;100814.38;7656816;32;37758;-78
2023/10/05 00:45:31;;;;;;;7.62;2.45;;;;;;;12.28;60.65;100819.84;7656561;32;39464;-78
2023/10/05 00:54:14;;;;;;;7.47;2.37;;;;;;;12.11;61.63;100824.56;7676881;32;38722;-78
2023/10/05 00:58:37;;;;;;;8.20;2.83;;;;;;;12.34;60.70;100816.03;7683750;32;38064;-77
2023/10/05 01:03:17;;;;;;;3.40;2.00;;;;;;;12.43;60.33;100815.59;7657575;32;39030;-77
2023/10/05 01:11:54;;;;;;;3.92;2.12;;;;;;;12.57;59.42;100803.13;7657150;32;38775;-75
2023/10/05 01:16:20;;;;;;;6.65;2.83;;;;;;;12.46;59.66;100796.75;7657110;32;37929;-78
2023/10/05 01:20:36;;;;;;;5.80;2.80;;;;;;;12.25;60.66;100786.72;7656948;32;39332;-78
2023/10/05 01:24:55;;;;;;;6.87;2.97;;;;;;;12.44;60.72;100800.84;7656964;32;40039;-78
2023/10/05 01:29:13;;;;;;;7.47;2.97;;;;;;;12.62;60.29;100791.41;7656906;32;37694;-77
2023/10/05 01:33:30;;;;;;;4.78;2.50;;;;;;;12.61;60.48;100796.06;7672703;32;37915;-78
2023/10/05 01:37:51;;;;;;;6.62;2.97;;;;;;;12.61;60.40;100784.28;7682567;32;40069;-78
2023/10/05 01:42:08;;;;;;;6.93;2.85;;;;;;;12.75;59.50;100780.84;7682900;32;39735;-78
2023/10/05 01:46:24;;;;;;;6.20;2.62;;;;;;;12.52;60.56;100790.25;7681660;32;38091;-78
2023/10/05 01:50:44;;;;;;;7.60;2.85;;;;;;;12.44;60.98;100782.50;7670136;32;37176;-78
2023/10/05 01:55:01;;;;;;;4.68;2.50;;;;;;;12.52;60.78;100770.25;7659999;32;39333;-76
2023/10/05 01:59:21;;;;;;;4.47;2.65;;;;;;;12.30;61.41;100757.50;7659787;32;39646;-78
2023/10/05 02:03:38;;;;;;;5.65;2.87;;;;;;;12.39;61.05;100760.59;7659768;32;38456;-78
2023/10/05 02:07:55;;;;;;;3.62;2.67;;;;;;;12.45;60.63;100756.78;7659949;32;37149;-78
2023/10/05 02:12:11;;;;;;;7.05;3.45;;;;;;;12.34;60.48;100739.47;7667727;32;39073;-78
2023/10/05 02:16:28;;;;;;;5.12;2.80;;;;;;;12.23;60.56;100735.03;7685950;32;40005;-77
2023/10/05 02:20:45;;;;;;;6.32;2.90;;;;;;;12.34;60.09;100731.28;7685648;32;37885;-78
2023/10/05 02:25:07;;;;;;;6.95;2.80;;;;;;;12.05;61.27;100732.66;7685807;32;38114;-78
2023/10/05 02:29:28;;;;;;;5.97;2.92;;;;;;;12.07;61.02;100727.75;7686029;32;39369;-78
2023/10/05 02:33:45;;;;;;;6.45;3.10;;;;;;;12.21;60.48;100720.78;7663903;32;40829;-76
2023/10/05 02:38:05;;;;;;;7.18;3.05;;;;;;;12.02;60.82;100731.25;7657940;32;37648;-78
2023/10/05 02:42:24;;;;;;;4.60;2.80;;;;;;;12.03;61.18;100727.44;7659002;32;37138;-76
2023/10/05 02:46:41;;;;;;;5.18;2.83;;;;;;;12.05;61.25;100727.19;7659407;32;39430;-76
2023/10/05 02:50:57;;;;;;;4.95;2.60;;;;;;;11.86;62.12;100732.97;7659252;32;40640;-77
2023/10/05 02:55:14;;;;;;;4.97;2.67;;;;;;;11.98;61.53;100735.59;7659145;32;38773;-78
2023/10/05 02:59:33;;;;;;;3.33;2.35;;;;;;;12.07;61.31;100741.44;7659028;32;36829;-78
2023/10/05 03:03:55;;;;;;;7.18;3.00;;;;;;;11.99;61.61;100737.25;7659052;32;40048;-78
2023/10/05 03:08:12;;;;;;;7.75;3.67;;;;;;;11.78;62.75;100750.69;7658998;32;39937;-78
2023/10/05 03:12:29;;;;;;;10.63;3.30;;;;;;;11.98;61.67;100755.53;7658791;32;38735;-77
2023/10/05 03:16:48;;;;;;;7.53;3.42;;;;;;;11.79;61.99;100746.84;7658925;32;37848;-77
2023/10/05 03:21:12;;;;;;;7.15;3.33;;;;;;;11.79;61.78;100756.97;7658925;32;40173;-77
2023/10/05 03:25:33;;;;;;;11.00;3.22;;;;;;;11.79;61.87;100754.22;7659016;32;40718;-78
2023/10/05 03:30:03;;;;;;;9.45;3.33;;;;;;;11.72;62.03;100756.34;7658860;32;38544;-77
2023/10/05 03:34:20;;;;;;;6.72;3.25;;;;;;;11.68;62.42;100750.56;7659010;32;36811;-77
2023/10/05 03:38:39;;;;;;;5.60;3.25;;;;;;;11.69;62.22;100762.31;7658503;32;40189;-77
2023/10/05 03:42:59;;;;;;;4.62;2.87;;;;;;;11.85;61.40;100761.41;7677516;32;39926;-78
2023/10/05 03:47:17;;;;;;;9.15;3.30;;;;;;;11.67;61.52;100757.09;7683764;32;38513;-78
2023/10/05 03:51:37;;;;;;;5.00;2.97;;;;;;;11.60;61.74;100749.09;7684974;32;37537;-77
2023/10/05 03:55:53;;;;;;;5.20;2.97;;;;;;;11.56;61.78;100758.87;7685055;32;39792;-77
2023/10/05 04:00:23;;;;;;;7.40;3.62;;;;;;;11.56;61.63;100750.69;7684758;32;40959;-78
2023/10/05 04:04:42;;;;;;;6.80;3.42;;;;;;;11.48;61.94;100766.69;7683714;32;38790;-77
2023/10/05 04:08:59;;;;;;;5.70;3.33;;;;;;;11.52;61.83;100776.88;7684391;32;36999;-78
2023/10/05 04:13:17;;;;;;;6.87;2.70;;;;;;;11.51;61.68;100769.75;7662940;32;39138;-78
2023/10/05 04:17:34;;;;;;;7.43;2.85;;;;;;;11.52;61.72;100774.12;7658247;32;39977;-76
2023/10/05 04:21:52;;;;;;;7.18;2.97;;;;;;;11.39;62.31;100780.78;7658200;32;37906;-78
2023/10/05 04:26:09;;;;;;;6.82;2.83;;;;;;;11.55;61.72;100787.25;7658261;32;36087;-78
2023/10/05 04:30:27;;;;;;;5.22;2.42;;;;;;;11.55;61.43;100779.06;7658047;32;39889;-78
2023/10/05 04:34:44;;;;;;;6.72;3.30;;;;;;;11.80;60.48;100784.03;7657978;32;38992;-77
2023/10/05 04:39:00;;;;;;;4.65;2.55;;;;;;;11.77;60.84;100780.97;7657608;32;38694;-78
2023/10/05 04:43:19;;;;;;;5.57;2.87;;;;;;;11.69;60.99;100774.03;7658564;32;36949;-78
2023/10/05 04:47:36;;;;;;;4.05;2.70;;;;;;;11.56;61.18;100780.72;7657873;32;40218;-78
2023/10/05 04:51:53;;;;;;;4.68;2.80;;;;;;;11.60;60.97;100787.31;7657588;32;40433;-78
2023/10/05 04:56:22;;;;;;;6.65;2.60;;;;;;;11.79;60.15;100792.47;7657414;32;38725;-77
2023/10/05 05:06:10;;;;;;;5.12;2.80;;;;;;;11.43;60.88;100808.41;7657508;32;39942;-78
2023/10/05 05:09:50;;;;;;;8.45;2.80;;;;;;;11.69;59.87;100800.53;7670179;32;39629;-78
2023/10/05 05:14:07;;;;;;;5.30;2.67;;;;;;;11.41;60.58;100796.91;7683059;32;38107;-78
2023/10/05 05:18:24;;;;;;;6.20;2.65;;;;;;;11.59;60.19;100802.06;7671124;32;37374;-78
2023/10/05 05:22:46;;;;;;;5.60;2.75;;;;;;;11.35;60.83;100812.41;7684509;32;39402;-77
2023/10/05 05:27:04;;;;;;;5.87;2.30;;;;;;;11.32;61.18;100821.09;7686001;32;39741;-78
2023/10/05 05:31:21;;;;;;;4.07;2.28;;;;;;;11.44;60.18;100818.25;7686454;32;38758;-78
2023/10/05 05:35:39;;;;;;;5.80;2.75;;;;;;;11.41;60.29;100816.03;7686182;32;37048;-78
2023/10/05 05:40:19;;;;;;;5.45;2.47;;;;;;;11.30;60.81;100808.75;7682134;32;39380;-77
2023/10/05 05:44:34;;;;;;;6.70;2.80;;;;;;;11.44;60.52;100801.88;7684910;32;39963;-77
2023/10/05 05:48:52;;;;;;;6.20;3.03;;;;;;;11.50;60.56;100802.75;7685044;32;39209;-77
2023/10/05 05:53:11;;;;;;;4.78;2.60;;;;;;;11.46;60.94;100797.81;7685004;32;37736;-77
2023/10/05 05:57:27;;;;;;;5.25;2.65;;;;;;;11.53;60.70;100808.53;7685021;32;39213;-65
2023/10/05 06:01:44;;;;;;;6.12;2.50;;;;;;;11.69;60.28;100797.81;7684725;32;40046;-79
2023/10/05 06:06:03;;;;;;;6.15;2.78;;;;;;;11.79;61.33;100803.41;7684647;32;37931;-79
2023/10/05 06:10:28;;;;;;;5.35;3.00;;;;;;;11.96;60.38;100806.09;7662650;32;37075;-78
2023/10/05 06:14:46;;;;;;;6.90;3.12;;;;;;;12.01;59.76;100801.50;7674041;32;39241;-78
2023/10/05 06:19:02;;;;;;;6.57;2.80;;;;;;;12.06;60.12;100802.66;7658394;32;40746;-78
2023/10/05 06:23:19;;;;;;;11.63;3.35;;;;;;;12.18;60.16;100797.84;7659116;32;38435;-77
2023/10/05 06:27:37;;;;;;;6.22;3.15;;;;;;;12.38;59.83;100797.22;7683087;32;37842;-76
2023/10/05 06:31:53;;;;;;;5.50;2.80;;;;;;;12.57;59.66;100803.13;7671936;32;39130;-76
2023/10/05 06:36:10;;;;;;;4.37;2.83;;;;;;;12.54;60.31;100795.47;7664475;32;177682;-78
2023/10/05 06:40:29;;;;;;;5.15;2.87;;;;;;;12.66;60.50;100804.31;7669418;32;37959;-76
2023/10/05 06:44:45;;;;;;;5.40;2.97;;;;;;;12.95;60.12;100790.28;7684715;32;36986;-76
2023/10/05 06:49:05;;;;;;;6.30;3.42;;;;;;;13.07;60.10;100790.94;7685605;32;39539;-75
2023/10/05 06:53:24;;;;;;;8.00;3.53;;;;;;;12.96;61.19;100783.72;7685498;32;40900;-77
2023/10/05 06:57:44;;;;;;;9.48;3.72;;;;;;;13.38;60.54;100782.09;7685496;32;37789;-77
2023/10/05 07:02:02;;;;;;;6.78;3.67;;;;;;;13.58;60.39;100786.84;7685431;32;37014;-78
2023/10/05 07:06:22;;;;;;;8.32;3.35;;;;;;;13.14;61.29;100783.31;7685487;32;39234;-79
2023/10/05 07:10:38;;;;;;;5.57;3.20;;;;;;;12.97;62.34;100777.19;7662621;32;39973;-79
2023/10/05 07:14:56;;;;;;;9.82;2.90;;;;;;;13.53;61.71;100793.94;7658700;32;38807;-79
2023/10/05 07:19:12;;;;;;;6.18;2.97;;;;;;;13.79;61.37;100783.06;7659131;32;37174;-78
2023/10/05 07:23:32;;;;;;;4.70;2.53;;;;;;;13.93;60.81;100780.66;7669795;32;39075;-77
2023/10/05 07:27:48;;;;;;;7.55;2.87;;;;;;;14.19;60.52;100773.28;7663411;32;39934;-77
2023/10/05 07:32:08;;;;;;;8.05;2.60;;;;;;;14.54;60.71;100771.69;7666242;32;38796;-77
2023/10/05 07:36:25;;;;;;;5.10;2.87;;;;;;;14.11;61.35;100765.63;7658678;32;37208;-77
2023/10/05 07:40:42;;;;;;;5.00;2.53;;;;;;;14.19;60.90;100770.56;7658829;32;39019;-76
2023/10/05 07:44:59;;;;;;;7.37;2.65;;;;;;;14.33;60.93;100778.25;7657745;32;39899;-79
2023/10/05 07:49:15;;;;;;;4.10;2.50;;;;;;;15.09;59.60;100773.84;7658504;32;38781;-76
2023/10/05 07:53:32;;;;;;;7.93;3.35;;;;;;;14.63;61.17;100782.97;7658471;32;37949;-76
2023/10/05 07:57:48;;;;;;;4.12;2.65;;;;;;;15.34;60.25;100779.28;7658510;32;39227;-77
2023/10/05 08:02:05;;;;;;;6.75;2.50;;;;;;;15.58;59.11;100778.66;7658247;32;40039;-76
2023/10/05 08:06:22;;;;;;;5.55;2.58;;;;;;;15.86;58.32;100779.09;7658418;32;38763;-77
2023/10/05 08:10:38;;;;;;;7.68;2.62;;;;;;;16.13;57.76;100773.19;7684719;32;37269;-77
2023/10/05 08:14:55;;;;;;;5.25;2.33;;;;;;;16.19;57.39;100762.94;7684717;32;40182;-77
2023/10/05 08:19:11;;;;;;;8.13;2.45;;;;;;;16.23;56.22;100767.59;7684544;32;40544;-77
2023/10/05 08:23:28;;;;;;;4.72;2.78;;;;;;;16.52;55.70;100759.41;7684224;32;38035;-75
2023/10/05 08:27:48;;;;;;;6.57;2.90;;;;;;;16.56;55.34;100764.31;7684409;32;37298;-76
2023/10/05 08:32:06;;;;;;;8.05;2.70;;;;;;;16.85;55.29;100759.69;7684410;32;40063;-76
2023/10/05 08:36:22;;;;;;;6.65;2.50;;;;;;;17.12;54.28;100760.25;7684062;32;39961;-77
2023/10/05 08:40:40;;;;;;;4.53;2.35;;;;;;;17.13;54.20;100765.47;7684251;32;38036;-75
2023/10/05 08:44:57;;;;;;;6.55;2.83;;;;;;;17.18;53.75;100765.41;7683859;32;37147;-76
2023/10/05 08:49:15;;;;;;;6.15;2.72;;;;;;;17.67;52.58;100759.88;7683542;32;39903;-76
2023/10/05 08:53:32;;;;;;;5.57;2.40;;;;;;;17.81;51.80;100760.75;7683992;32;39004;-75
2023/10/05 08:57:52;;;;;;;5.12;2.40;;;;;;;18.10;50.61;100757.91;7682450;32;37946;-75
2023/10/05 09:02:09;;;;;;;5.07;2.42;;;;;;;18.04;50.45;100744.47;7672068;32;37895;-76
2023/10/05 09:06:26;;;;;;;5.07;2.30;;;;;;;18.86;48.56;100746.72;7655752;32;39375;-77
2023/10/05 09:10:42;;;;;;;4.20;2.10;;;;;;;19.43;47.85;100732.63;7656368;32;40064;-77
2023/10/05 09:19:35;;;;;;;4.37;1.90;;;;;;;19.64;43.75;100719.19;7656812;32;37112;-76
2023/10/05 09:23:51;;;;;;;6.05;1.70;;;;;;;20.14;41.31;100723.88;7657686;32;39816;-77
2023/10/05 09:28:15;;;;;;;4.22;1.77;;;;;;;20.11;38.92;100710.69;7666694;32;40432;-82
2023/10/05 09:32:36;;;;;;;5.10;1.62;;;;;;;20.56;36.25;100710.69;7658823;32;37746;-80
2023/10/05 09:36:53;;;;;;;4.82;1.73;;;;;;;21.25;34.89;100708.53;7683106;32;38089;-80
2023/10/05 09:41:11;;;;;;;4.62;1.45;;;;;;;21.30;35.23;100711.16;7681882;32;39405;-79
2023/10/05 09:45:30;;;;;;;3.87;1.48;;;;;;;21.64;33.92;100702.13;7675841;32;38306;-77
2023/10/05 09:49:48;;;;;;;2.42;1.60;;;;;;;21.47;35.96;100702.13;7656316;32;37012;-78
2023/10/05 09:54:10;;;;;;;4.62;2.08;;;;;;;21.86;33.92;100695.63;7655512;32;34567;-79
2023/10/05 09:58:28;;;;;;;3.83;1.62;;;;;;;22.34;32.53;100685.50;7657035;32;39377;-78
2023/10/05 10:02:45;;;;;;;6.62;1.70;;;;;;;22.21;33.58;100678.94;7666180;32;38717;-76
2023/10/05 10:07:09;;;;;;;6.00;2.08;;;;;;;22.21;32.88;100680.91;7687028;32;38059;-75
2023/10/05 10:11:31;;;;;;;8.05;1.77;;;;;;;22.33;31.92;100678.31;7673540;32;37036;-75
2023/10/05 10:15:49;;;;;;;4.07;2.00;;;;;;;22.69;32.17;100666.75;7662012;32;39408;-75
2023/10/05 10:20:34;;;;;;;3.17;1.80;;;;;;;22.54;32.00;100661.75;7666000;32;40729;-75
2023/10/05 10:24:56;;;;;;;3.92;2.08;;;;;;;23.22;31.40;100652.66;7659625;32;39090;-76
2023/10/05 10:29:16;;;;;;;4.87;1.92;;;;;;;23.71;29.26;100646.56;7659602;32;37820;-77
2023/10/05 10:33:37;;;;;;;4.68;1.95;;;;;;;22.97;29.52;100644.06;7667990;32;40134;-81
2023/10/05 10:37:59;;;;;;;4.40;1.77;;;;;;;22.69;30.30;100641.75;7685617;32;39700;-76
2023/10/05 10:42:19;;;;;;;4.93;1.62;;;;;;;23.47;29.28;100641.69;7678434;32;38194;-75
2023/10/05 10:46:38;;;;;;;4.60;1.80;;;;;;;23.30;30.29;100632.31;7665018;32;36908;-76
2023/10/05 10:50:59;;;;;;;4.68;1.75;;;;;;;23.44;30.01;100620.94;7676158;32;39533;-76
2023/10/05 10:55:16;;;;;;;2.92;1.60;;;;;;;23.54;28.53;100614.97;7658709;32;40857;-77
2023/10/05 10:59:41;;;;;;;6.47;1.73;;;;;;;23.83;28.53;100604.91;7658424;32;38795;-76
2023/10/05 11:04:01;;;;;;;3.50;1.45;;;;;;;24.29;27.11;100607.72;7659133;32;37474;-76
2023/10/05 11:08:20;;;;;;;3.47;1.30;;;;;;;24.05;27.99;100588.97;7658880;32;39077;-75
2023/10/05 11:12:42;;;;;;;4.43;1.90;;;;;;;23.72;27.54;100593.34;7659059;32;39627;-76
2023/10/05 11:17:11;;;;;;;3.20;1.35;;;;;;;24.09;27.82;100579.56;7658812;32;38934;-76
2023/10/05 11:21:32;;;;;;;4.35;1.73;;;;;;;23.75;28.73;100580.72;7657591;32;37681;-76
2023/10/05 11:25:51;;;;;;;3.08;1.23;;;;;;;23.91;28.87;100565.03;7658733;32;39654;-76
2023/10/05 11:30:41;;;;;;;4.05;1.40;;;;;;;24.41;27.59;100557.59;7658809;32;40022;-77
2023/10/05 11:35:28;;;;;;;4.55;1.92;;;;;;;23.87;28.99;100546.56;7665603;32;38077;-77
2023/10/05 11:39:49;;;;;;;3.33;1.60;;;;;;;24.45;28.35;100547.38;7658787;32;37153;-76
2023/10/05 11:44:11;;;;;;;5.45;1.70;;;;;;;24.76;27.59;100532.06;7658533;32;40177;-78
2023/10/05 11:48:48;;;;;;;3.43;1.50;;;;;;;24.74;27.60;100537.97;7658656;32;40943;-78
2023/10/05 11:53:11;;;;;;;5.03;1.95;;;;;;;24.82;27.22;100541.81;7660222;32;37976;-78
2023/10/05 11:57:29;;;;;;;4.00;1.80;;;;;;;24.89;27.49;100530.09;7658436;32;37215;-77
2023/10/05 12:01:45;;;;;;;2.08;1.17;;;;;;;24.52;27.39;100536.44;7658248;32;39003;-78
2023/10/05 12:06:02;;;;;;;3.87;1.65;;;;;;;24.76;26.79;100534.03;7658207;32;40868;-78
2023/10/05 12:10:19;;;;;;;6.37;1.67;;;;;;;24.87;27.55;100529.59;7658067;32;38046;-78
2023/10/05 12:14:36;;;;;;;4.75;1.73;;;;;;;24.34;27.61;100518.34;7658143;32;37105;-78
2023/10/05 12:18:54;;;;;;;4.12;1.52;;;;;;;24.28;27.21;100528.87;7658115;32;40183;-78
2023/10/05 12:23:14;;;;;;;3.42;1.65;;;;;;;24.89;27.15;100522.53;7657911;32;40760;-78
2023/10/05 12:27:32;;;;;;;6.28;1.70;;;;;;;24.05;28.37;100522.13;7657782;32;38545;-78
2023/10/05 12:31:49;;;;;;;5.82;1.85;;;;;;;24.97;27.60;100509.59;7656268;32;37188;-79
2023/10/05 12:36:12;;;;;;;5.93;1.80;;;;;;;24.72;26.68;100511.63;7657867;32;40168;-78
2023/10/05 12:40:33;;;;;;;4.43;1.70;;;;;;;24.49;28.14;100509.28;7657825;32;40761;-79
2023/10/05 12:44:51;;;;;;;7.22;1.90;;;;;;;24.87;27.18;100508.13;7656417;32;38012;-76
2023/10/05 12:49:08;;;;;;;7.87;1.90;;;;;;;25.56;25.98;100485.00;7670674;32;37698;-78
2023/10/05 12:53:26;;;;;;;4.28;1.70;;;;;;;25.89;26.05;100489.47;7680206;32;39074;-78
2023/10/05 12:57:44;;;;;;;4.78;1.98;;;;;;;24.76;26.97;100489.44;7683913;32;40775;-78
2023/10/05 13:02:09;;;;;;;4.22;2.00;;;;;;;24.92;27.46;100474.41;7683571;32;39630;-78
2023/10/05 13:06:25;;;;;;;7.20;2.10;;;;;;;23.71;30.15;100474.81;7683825;32;37633;-78
2023/10/05 13:10:43;;;;;;;8.98;2.22;;;;;;;23.94;29.88;100466.06;7683807;32;40174;-78
2023/10/05 13:15:03;;;;;;;4.75;2.03;;;;;;;24.78;28.88;100470.38;7683562;32;40912;-78
2023/10/05 13:19:24;;;;;;;3.97;1.87;;;;;;;25.55;27.57;100453.50;7683252;32;38047;-79
2023/10/05 13:23:41;;;;;;;2.67;1.48;;;;;;;25.57;27.52;100455.94;7683309;32;37811;-79
2023/10/05 13:27:58;;;;;;;4.97;1.73;;;;;;;25.49;26.46;100452.94;7668049;32;39075;-65
2023/10/05 13:32:14;;;;;;;6.22;1.87;;;;;;;24.78;28.93;100450.84;7667769;32;39956;-66
2023/10/05 13:36:33;;;;;;;4.95;1.87;;;;;;;24.71;28.29;100449.47;7664167;32;38014;-67
2023/10/05 13:41:13;;;;;;;6.78;1.60;;;;;;;25.49;27.03;100443.75;7673422;32;37850;-67
2023/10/05 13:45:30;;;;;;;5.72;2.08;;;;;;;25.04;28.22;100442.91;7678497;32;39458;-76
2023/10/05 13:49:55;;;;;;;7.65;2.17;;;;;;;24.42;28.98;100452.50;7657837;32;39887;-79
2023/10/05 13:54:15;;;;;;;5.55;2.17;;;;;;;24.29;28.88;100448.94;7658860;32;38855;-78
2023/10/05 13:58:31;;;;;;;5.53;1.67;;;;;;;25.09;28.16;100425.06;7658991;32;37171;-80
2023/10/05 14:02:49;;;;;;;5.62;2.20;;;;;;;24.67;29.67;100419.87;7659227;32;40201;-79
2023/10/05 14:07:07;;;;;;;4.87;1.95;;;;;;;24.54;29.45;100419.06;7658816;32;39939;-80
2023/10/05 14:11:24;;;;;;;3.25;1.73;;;;;;;24.82;27.95;100419.13;7659181;32;38391;-80
2023/10/05 14:15:40;;;;;;;3.12;1.77;;;;;;;24.21;29.06;100424.78;7659057;32;37914;-78
2023/10/05 14:19:56;;;;;;;6.28;1.80;;;;;;;24.55;28.74;100424.31;7658707;32;40004;-79
2023/10/05 14:24:17;;;;;;;4.95;1.80;;;;;;;24.47;29.71;100427.19;7658957;32;40864;-79
2023/10/05 14:28:33;;;;;;;4.75;1.98;;;;;;;24.22;29.88;100424.44;7658650;32;37812;-79
2023/10/05 14:32:50;;;;;;;5.50;1.87;;;;;;;25.11;29.84;100406.81;7658857;32;37171;-80
2023/10/05 14:37:07;;;;;;;4.12;1.70;;;;;;;24.95;29.73;100411.53;7658229;32;40128;-80
2023/10/05 14:41:25;;;;;;;5.10;2.25;;;;;;;24.60;29.83;100408.50;7658751;32;40062;-79
2023/10/05 14:45:48;;;;;;;7.57;2.55;;;;;;;24.57;29.71;100409.22;7658344;32;38852;-80
2023/10/05 14:50:07;;;;;;;3.20;1.87;;;;;;;24.31;30.22;100402.03;7658438;32;36676;-80
2023/10/05 14:54:24;;;;;;;3.67;1.95;;;;;;;24.64;30.00;100406.63;7658492;32;40145;-79
2023/10/05 14:58:43;;;;;;;4.57;1.70;;;;;;;24.34;30.20;100404.91;7658169;32;40107;-79
2023/10/05 15:02:59;;;;;;;3.42;1.70;;;;;;;24.26;29.99;100400.28;7658493;32;38577;-80
2023/10/05 15:07:16;;;;;;;6.57;2.08;;;;;;;24.59;29.54;100406.87;7656951;32;37234;-80
2023/10/05 15:11:33;;;;;;;5.85;2.20;;;;;;;24.61;30.17;100396.19;7658643;32;39205;-80
2023/10/05 15:15:52;;;;;;;4.15;2.00;;;;;;;24.63;30.79;100391.91;7658392;32;40721;-80
2023/10/05 15:20:10;;;;;;;5.62;2.35;;;;;;;24.21;31.83;100386.59;7657863;32;38461;-79
2023/10/05 15:24:30;;;;;;;7.32;2.00;;;;;;;23.73;32.07;100394.56;7658309;32;37584;-79
2023/10/05 15:28:47;;;;;;;5.28;2.35;;;;;;;23.39;32.41;100393.81;7657973;32;39247;-79
2023/10/05 15:33:04;;;;;;;7.22;1.87;;;;;;;23.05;33.26;100387.44;7658853;32;40167;-79
2023/10/05 15:37:20;;;;;;;7.05;2.50;;;;;;;22.95;33.93;100387.03;7657565;32;38760;-81
2023/10/05 15:41:37;;;;;;;5.15;2.35;;;;;;;22.34;35.56;100390.28;7658207;32;37197;-79
2023/10/05 15:45:58;;;;;;;5.20;1.80;;;;;;;22.23;35.85;100387.88;7658030;32;39902;-79
2023/10/05 15:50:18;;;;;;;4.93;2.10;;;;;;;21.99;37.01;100388.50;7657717;32;40086;-81
2023/10/05 15:54:38;;;;;;;3.72;2.00;;;;;;;21.31;39.95;100394.72;7657957;32;38067;-79
2023/10/05 15:58:55;;;;;;;8.35;2.28;;;;;;;21.78;40.04;100395.91;7656380;32;37868;-80
2023/10/05 16:03:14;;;;;;;7.12;2.72;;;;;;;20.79;43.14;100400.31;7656419;32;40156;-79
2023/10/05 16:07:31;;;;;;;4.18;2.33;;;;;;;21.41;42.08;100396.34;7656718;32;39977;-80
2023/10/05 16:11:49;;;;;;;4.75;2.28;;;;;;;21.37;42.34;100393.41;7657685;32;37926;-80
2023/10/05 16:16:07;;;;;;;7.75;2.37;;;;;;;21.27;41.94;100398.50;7657941;32;37599;-80
2023/10/05 16:20:25;;;;;;;5.28;2.30;;;;;;;21.09;42.11;100398.50;7656313;32;39156;-81
2023/10/05 16:24:44;;;;;;;5.50;2.17;;;;;;;21.08;42.12;100412.72;7657826;32;40897;-79
2023/10/05 16:29:01;;;;;;;4.90;2.25;;;;;;;21.12;41.90;100416.44;7657173;32;37843;-81
2023/10/05 16:33:20;;;;;;;8.65;2.80;;;;;;;20.79;42.58;100409.44;7657390;32;37024;-81
2023/10/05 16:37:38;;;;;;;5.10;2.37;;;;;;;20.40;43.29;100429.72;7657006;32;40124;-79
2023/10/05 16:41:55;;;;;;;8.48;3.20;;;;;;;20.84;42.48;100425.09;7657363;32;39755;-80
2023/10/05 16:46:12;;;;;;;7.03;3.22;;;;;;;20.86;41.59;100428.34;7657277;32;38089;-79
2023/10/05 16:50:31;;;;;;;10.25;3.65;;;;;;;20.65;41.87;100430.16;7657068;32;38136;-80
2023/10/05 16:54:47;;;;;;;8.50;3.67;;;;;;;20.88;41.59;100428.03;7657235;32;38340;-79
2023/10/05 16:59:07;;;;;;;7.70;3.35;;;;;;;20.59;42.37;100430.28;7656746;32;40911;-79
2023/10/05 17:03:26;;;;;;;7.00;3.20;;;;;;;20.74;41.68;100425.44;7656918;32;38041;-80
2023/10/05 17:07:44;;;;;;;6.55;2.80;;;;;;;20.55;42.08;100434.81;7656776;32;37015;-79
2023/10/05 17:12:01;;;;;;;7.30;2.70;;;;;;;20.49;41.97;100438.91;7656885;32;39193;-80
2023/10/05 17:16:18;;;;;;;5.45;2.62;;;;;;;20.10;42.72;100443.34;7656743;32;40580;-81
2023/10/05 17:20:34;;;;;;;9.57;2.62;;;;;;;20.20;42.70;100445.81;7659569;32;37852;-80
2023/10/05 17:24:54;;;;;;;9.50;2.70;;;;;;;19.93;42.99;100451.56;7659911;32;36787;-79
2023/10/05 17:29:11;;;;;;;5.95;2.60;;;;;;;20.05;43.20;100449.00;7659514;32;38840;-79
2023/10/05 17:33:30;;;;;;;6.93;2.37;;;;;;;20.12;43.21;100443.81;7659622;32;39927;-80
2023/10/05 17:37:47;;;;;;;7.18;3.00;;;;;;;19.95;43.72;100446.53;7659018;32;38037;-79
2023/10/05 17:42:09;;;;;;;5.72;2.62;;;;;;;19.76;43.63;100458.63;7658664;32;37148;-79
2023/10/05 17:46:25;;;;;;;6.85;2.80;;;;;;;19.86;43.46;100458.38;7660198;32;39120;-80
2023/10/05 17:50:54;;;;;;;7.95;2.85;;;;;;;19.74;43.60;100460.91;7660102;32;40712;-79
2023/10/05 17:55:11;;;;;;;6.07;2.45;;;;;;;19.81;43.22;100458.50;7658947;32;38024;-80
2023/10/05 17:59:27;;;;;;;6.47;3.30;;;;;;;19.72;43.63;100468.69;7659931;32;36744;-79
2023/10/05 18:03:44;;;;;;;10.93;2.95;;;;;;;19.74;43.46;100454.53;7659880;32;39417;-78
2023/10/05 18:08:06;;;;;;;7.30;2.80;;;;;;;19.63;43.44;100462.28;7659643;32;41209;-80
2023/10/05 18:12:25;;;;;;;4.32;2.55;;;;;;;19.61;43.77;100464.53;7659555;32;38815;-78
2023/10/05 18:16:42;;;;;;;6.30;2.72;;;;;;;19.64;43.39;100463.91;7659609;32;37074;-79
2023/10/05 18:20:59;;;;;;;8.45;3.05;;;;;;;19.65;43.25;100460.84;7659557;32;40098;-79
2023/10/05 18:25:19;;;;;;;5.90;2.75;;;;;;;19.55;43.76;100474.13;7659435;32;40598;-80
2023/10/05 18:29:35;;;;;;;6.50;2.30;;;;;;;19.46;43.79;100477.63;7659028;32;38516;-79
2023/10/05 18:33:51;;;;;;;7.00;2.80;;;;;;;19.44;44.19;100479.09;7659553;32;36814;-79
2023/10/05 18:38:08;;;;;;;7.47;3.22;;;;;;;19.38;44.24;100481.16;7658216;32;39520;-79
2023/10/05 18:42:25;;;;;;;4.80;2.47;;;;;;;19.08;44.51;100489.06;7657980;32;40771;-79
2023/10/05 18:46:41;;;;;;;5.57;2.80;;;;;;;19.07;44.50;100492.94;7658017;32;38489;-79
2023/10/05 18:51:06;;;;;;;5.18;2.47;;;;;;;19.06;44.63;100493.28;7659183;32;37890;-79
2023/10/05 18:55:25;;;;;;;7.70;2.95;;;;;;;19.00;44.61;100489.78;7659109;32;39387;-79
2023/10/05 18:59:43;;;;;;;6.85;2.90;;;;;;;19.09;44.24;100496.22;7667723;32;39740;-78
2023/10/05 19:04:02;;;;;;;7.90;3.00;;;;;;;19.01;44.25;100494.19;7656410;32;37983;-81
2023/10/05 19:08:19;;;;;;;11.05;2.78;;;;;;;18.95;44.50;100507.31;7670744;32;37804;-81
2023/10/05 19:12:35;;;;;;;7.30;3.42;;;;;;;19.07;44.42;100503.97;7673626;32;40121;-78
2023/10/05 19:16:53;;;;;;;6.43;2.95;;;;;;;18.90;44.51;100506.59;7668733;32;39728;-82
2023/10/05 19:21:14;;;;;;;7.28;2.72;;;;;;;19.01;44.54;100509.97;7667803;32;38003;-83
2023/10/05 19:25:31;;;;;;;8.68;2.72;;;;;;;18.80;45.68;100515.06;7671830;32;38679;-83
2023/10/05 19:29:48;;;;;;;6.07;2.45;;;;;;;19.01;45.20;100521.03;7670675;32;39436;-83
2023/10/05 19:34:07;;;;;;;7.97;2.60;;;;;;;18.81;45.74;100516.72;7670519;32;41689;-83
2023/10/05 19:38:25;;;;;;;6.60;3.20;;;;;;;18.90;45.31;100523.16;7671898;32;38708;-85
2023/10/05 19:42:42;;;;;;;5.93;2.78;;;;;;;18.77;45.22;100527.56;7669628;32;38171;-83
2023/10/05 19:47:05;;;;;;;10.23;3.17;;;;;;;18.76;45.41;100525.91;7664465;32;39490;-86
2023/10/05 19:51:21;;;;;;;6.87;2.85;;;;;;;18.86;45.36;100519.41;7659510;32;40789;-86
2023/10/05 19:55:38;;;;;;;7.37;2.58;;;;;;;18.81;45.75;100522.25;7684292;32;38967;-81
2023/10/05 19:59:56;;;;;;;6.97;2.58;;;;;;;18.88;45.56;100536.47;7661108;32;37082;-81
2023/10/05 20:04:13;;;;;;;7.50;3.28;;;;;;;18.71;45.50;100537.91;7662745;32;37443;-81
2023/10/05 20:08:34;;;;;;;7.05;2.70;;;;;;;18.61;44.78;100540.06;7676118;32;39933;-80
2023/10/05 20:12:54;;;;;;;7.55;3.10;;;;;;;18.68;44.52;100546.81;7669352;32;37603;-79
2023/10/05 20:17:13;;;;;;;7.47;3.17;;;;;;;18.84;44.30;100538.22;7669187;32;37120;-78
2023/10/05 20:21:30;;;;;;;9.32;2.58;;;;;;;18.66;44.37;100538.03;7668491;32;39469;-79